Time;durP1;ratioP1;P1;durP2;ratioP2;P2;SDS_P1;SDS_P2;PMS_P1;PMS_P2;Temp;Humidity;BMP_temperature;BMP_pressure;BME280_temperature;BME280_humidity;BME280_pressure;Samples;Min_cycle;Max_cycle;Signal;HPM_P1;HPM_P2
2021/05/26 00:01:51;;;;;;;4.13;2.50;;;;;;;7.56;100.00;100434.66;5016768;28;20533;-71
2021/05/26 00:04:17;;;;;;;4.07;2.40;;;;;;;7.36;100.00;100428.47;5033786;28;20171;-71
2021/05/26 00:06:42;;;;;;;4.50;3.03;;;;;;;7.26;100.00;100419.19;5016034;28;20188;-71
2021/05/26 00:09:07;;;;;;;3.83;3.27;;;;;;;7.35;100.00;100428.53;5036052;28;20183;-72
2021/05/26 00:11:33;;;;;;;4.60;2.77;;;;;;;7.52;100.00;100431.28;5033831;28;20174;-72
2021/05/26 00:13:58;;;;;;;4.03;2.90;;;;;;;7.47;100.00;100430.66;5033713;28;20222;-71
2021/05/26 00:16:25;;;;;;;4.00;2.93;;;;;;;7.59;100.00;100424.75;5015714;28;20230;-71
2021/05/26 00:18:50;;;;;;;4.13;3.00;;;;;;;7.69;100.00;100426.03;5033226;28;20229;-71
2021/05/26 00:21:17;;;;;;;3.83;3.03;;;;;;;7.73;100.00;100419.63;5015580;28;20173;-72
2021/05/26 00:23:42;;;;;;;4.43;3.43;;;;;;;7.82;100.00;100419.22;5032980;28;20656;-70
2021/05/26 00:26:07;;;;;;;6.23;4.13;;;;;;;7.67;100.00;100411.09;5033345;28;20225;-71
2021/05/26 00:28:33;;;;;;;8.60;3.53;;;;;;;7.70;100.00;100416.25;5033056;28;20173;-71
2021/05/26 00:30:59;;;;;;;4.33;3.93;;;;;;;7.88;100.00;100419.84;5033131;28;20528;-71
2021/05/26 00:33:25;;;;;;;4.77;4.20;;;;;;;7.96;100.00;100415.03;5032824;28;20196;-71
2021/05/26 00:35:50;;;;;;;5.87;3.73;;;;;;;7.89;100.00;100414.47;5031870;28;20549;-71
2021/05/26 00:38:16;;;;;;;4.87;4.37;;;;;;;7.96;100.00;100425.66;5033051;28;20184;-72
2021/05/26 00:40:42;;;;;;;5.70;4.23;;;;;;;7.95;100.00;100415.97;5031570;28;20175;-71
2021/05/26 00:43:08;;;;;;;5.80;4.70;;;;;;;7.92;100.00;100413.44;5016025;28;20168;-71
2021/05/26 00:45:33;;;;;;;5.23;4.77;;;;;;;7.93;99.79;100413.38;5033089;28;20283;-71
2021/05/26 00:47:59;;;;;;;5.73;4.50;;;;;;;7.84;98.22;100421.81;5018531;28;20219;-71
2021/05/26 00:50:29;;;;;;;4.50;4.10;;;;;;;7.97;96.91;100404.31;5036737;28;20648;-71
2021/05/26 00:53:16;;;;;;;4.37;3.87;;;;;;;8.08;94.02;100401.97;5036615;28;20548;-72
2021/05/26 00:55:42;;;;;;;4.90;3.40;;;;;;;8.25;92.19;100413.59;5035897;28;20164;-71
2021/05/26 00:58:08;;;;;;;4.33;3.80;;;;;;;8.36;90.06;100412.16;5018695;28;20674;-71
2021/05/26 01:00:36;;;;;;;4.20;3.70;;;;;;;8.35;90.21;100401.59;5035695;28;20265;-71
2021/05/26 01:03:02;;;;;;;5.03;4.10;;;;;;;8.31;89.57;100402.66;5035924;28;20174;-72
2021/05/26 01:05:27;;;;;;;6.73;3.63;;;;;;;8.41;89.64;100407.44;5019116;28;20169;-71
2021/05/26 01:07:53;;;;;;;5.27;3.83;;;;;;;8.36;89.38;100412.16;5036756;28;20206;-71
2021/05/26 01:10:22;;;;;;;4.67;4.17;;;;;;;8.52;89.05;100408.69;5039845;28;20195;-71
2021/05/26 01:12:47;;;;;;;3.83;3.47;;;;;;;8.61;88.05;100405.59;5037387;28;20278;-71
2021/05/26 01:15:14;;;;;;;4.30;3.53;;;;;;;8.63;87.39;100404.56;5036851;28;20704;-72
2021/05/26 01:17:39;;;;;;;3.50;3.20;;;;;;;8.59;87.16;100410.13;5035420;28;20223;-72
2021/05/26 01:20:11;;;;;;;5.03;3.87;;;;;;;8.53;87.52;100399.78;5034716;28;20215;-71
2021/05/26 01:22:36;;;;;;;5.20;3.70;;;;;;;8.50;87.19;100397.28;5036860;28;20163;-71
2021/05/26 01:25:06;;;;;;;3.50;3.17;;;;;;;8.51;87.06;100401.66;5034716;28;20176;-72
2021/05/26 01:27:31;;;;;;;4.13;3.60;;;;;;;8.62;86.74;100404.66;5035590;28;20203;-72
2021/05/26 01:29:57;;;;;;;3.47;3.17;;;;;;;8.48;87.33;100407.13;5035072;28;20179;-72
2021/05/26 01:32:23;;;;;;;6.13;3.50;;;;;;;8.54;86.68;100406.81;5017595;28;20230;-71
2021/05/26 01:34:48;;;;;;;4.00;3.60;;;;;;;8.32;87.52;100394.59;5017782;28;20685;-71
2021/05/26 01:37:14;;;;;;;4.97;3.60;;;;;;;8.40;87.13;100395.09;5017655;28;20196;-71
2021/05/26 01:39:39;;;;;;;7.17;3.73;;;;;;;8.33;87.16;100398.09;5034020;28;20176;-71
2021/05/26 01:42:05;;;;;;;3.90;3.47;;;;;;;8.40;87.39;100396.88;5035306;28;20541;-71
2021/05/26 01:44:34;;;;;;;4.80;3.50;;;;;;;8.34;87.76;100399.88;5035596;28;20212;-72
2021/05/26 01:46:59;;;;;;;5.87;3.60;;;;;;;8.33;87.09;100398.09;5016995;28;20210;-71
2021/05/26 01:49:25;;;;;;;3.53;3.20;;;;;;;8.33;88.27;100393.69;5033786;28;20211;-71
2021/05/26 01:51:50;;;;;;;3.97;3.40;;;;;;;8.43;86.99;100410.88;5035002;28;20179;-71
2021/05/26 01:54:15;;;;;;;7.00;3.83;;;;;;;8.37;87.22;100402.38;5034984;28;20679;-72
2021/05/26 01:56:40;;;;;;;4.10;3.70;;;;;;;8.44;87.11;100393.13;5034822;28;20541;-72
2021/05/26 01:59:06;;;;;;;3.77;3.37;;;;;;;8.20;88.29;100397.88;5034328;28;20187;-72
2021/05/26 02:01:32;;;;;;;4.40;3.73;;;;;;;8.28;88.08;100393.03;5033900;28;20221;-71
2021/05/26 02:03:57;;;;;;;3.70;3.30;;;;;;;8.22;88.49;100396.00;5016914;28;20178;-72
2021/05/26 02:06:24;;;;;;;5.47;3.77;;;;;;;8.28;87.65;100392.16;5016758;28;20199;-72
2021/05/26 02:08:51;;;;;;;4.97;4.00;;;;;;;8.31;87.72;100389.34;5017185;28;20248;-72
2021/05/26 02:14:03;;;;;;;7.63;3.33;;;;;;;8.33;87.83;100383.06;5033519;28;20564;-72
2021/05/26 02:16:28;;;;;;;4.30;3.63;;;;;;;8.36;87.14;100390.88;5033555;28;20245;-72
2021/05/26 02:18:53;;;;;;;4.13;3.30;;;;;;;8.33;87.45;100383.06;5034670;28;20631;-71
2021/05/26 02:21:19;;;;;;;3.90;3.50;;;;;;;8.44;87.53;100394.00;5016627;28;20172;-71
2021/05/26 02:23:44;;;;;;;4.13;3.37;;;;;;;8.59;86.12;100389.69;5033237;28;20251;-72
2021/05/26 02:26:09;;;;;;;4.10;3.37;;;;;;;8.57;85.60;100390.72;5034306;28;20195;-71
2021/05/26 02:28:35;;;;;;;4.83;3.70;;;;;;;8.62;85.88;100394.00;5033573;28;20215;-71
2021/05/26 02:31:00;;;;;;;7.53;3.63;;;;;;;8.66;85.72;100384.91;5034179;28;20176;-71
2021/05/26 02:33:25;;;;;;;4.73;3.40;;;;;;;8.64;85.37;100392.13;5034007;28;20195;-72
2021/05/26 02:35:51;;;;;;;4.73;3.57;;;;;;;8.43;85.90;100404.72;5033923;28;20177;-71
2021/05/26 02:38:16;;;;;;;5.30;4.23;;;;;;;8.55;85.01;100395.22;5032778;28;20199;-71
2021/05/26 02:40:41;;;;;;;4.43;4.03;;;;;;;8.53;85.43;100390.00;5033977;28;20169;-72
2021/05/26 02:43:07;;;;;;;5.03;4.00;;;;;;;8.54;85.76;100394.38;5016220;28;20603;-72
2021/05/26 02:45:32;;;;;;;7.03;3.73;;;;;;;8.56;85.32;100389.00;5033017;28;20569;-72
2021/05/26 02:47:58;;;;;;;5.37;3.83;;;;;;;8.56;85.03;100389.88;4999808;28;20230;-71
2021/05/26 02:50:24;;;;;;;5.17;3.80;;;;;;;8.56;85.15;100386.34;5033930;28;20623;-71
2021/05/26 02:52:50;;;;;;;4.47;3.80;;;;;;;8.34;86.36;100382.09;5032520;28;20664;-70
2021/05/26 02:55:16;;;;;;;5.47;4.07;;;;;;;8.56;85.56;100389.00;5032905;28;20262;-71
2021/05/26 02:57:42;;;;;;;5.47;3.73;;;;;;;8.65;84.58;100392.03;5033599;28;20196;-72
2021/05/26 03:00:09;;;;;;;5.23;3.60;;;;;;;8.63;85.32;100387.75;5033774;28;20710;-72
2021/05/26 03:02:34;;;;;;;5.30;4.03;;;;;;;8.50;85.49;100384.84;5033502;28;20247;-72
2021/05/26 03:04:59;;;;;;;5.23;3.57;;;;;;;8.63;85.32;100385.94;5033609;28;20168;-72
2021/05/26 03:07:25;;;;;;;5.27;3.70;;;;;;;8.77;84.32;100393.19;5015650;28;20206;-72
2021/05/26 03:09:50;;;;;;;3.90;3.50;;;;;;;8.62;85.47;100386.03;5032658;28;20242;-71
2021/05/26 03:12:15;;;;;;;4.57;3.30;;;;;;;8.49;86.56;100382.25;5032178;28;20663;-70
2021/05/26 03:14:41;;;;;;;6.23;3.60;;;;;;;8.86;84.15;100397.16;5032497;28;20640;-72
2021/05/26 03:17:06;;;;;;;3.97;3.30;;;;;;;8.76;85.02;100394.13;5034392;28;20274;-71
2021/05/26 03:19:31;;;;;;;4.57;3.17;;;;;;;8.55;86.25;100392.56;5017237;28;20183;-71
2021/05/26 03:21:57;;;;;;;3.53;3.20;;;;;;;8.62;85.68;100394.00;5034288;28;20584;-71
2021/05/26 03:24:23;;;;;;;5.13;3.23;;;;;;;8.78;84.21;100389.59;5032002;28;20196;-71
2021/05/26 03:26:48;;;;;;;5.03;3.10;;;;;;;8.47;86.61;100387.66;5031891;28;20192;-71
2021/05/26 03:29:13;;;;;;;5.30;3.60;;;;;;;8.46;87.14;100388.59;5015738;28;20656;-71
2021/05/26 03:31:39;;;;;;;4.13;3.00;;;;;;;8.57;86.00;100390.72;5015600;28;20608;-71
2021/05/26 03:34:04;;;;;;;6.63;3.20;;;;;;;8.43;86.55;100381.63;5032401;28;20518;-71
2021/05/26 03:36:29;;;;;;;3.47;2.90;;;;;;;8.31;87.93;100390.22;5015821;28;20200;-70
2021/05/26 03:38:55;;;;;;;3.10;2.80;;;;;;;8.30;87.15;100383.19;5032957;28;20176;-71
2021/05/26 03:41:20;;;;;;;3.93;3.10;;;;;;;8.40;86.59;100384.44;5015274;28;20183;-71
2021/05/26 03:43:46;;;;;;;3.43;2.87;;;;;;;8.35;86.87;100391.81;5033164;28;20177;-69
2021/05/26 03:48:43;;;;;;;3.63;2.73;;;;;;;8.28;86.87;100379.72;5073988;22;20223;-68
2021/05/26 03:51:09;;;;;;;8.80;3.43;;;;;;;8.20;87.42;100381.06;5052842;28;20183;-68
2021/05/26 03:53:34;;;;;;;4.77;2.47;;;;;;;8.30;86.71;100372.53;5052746;28;20211;-69
2021/05/26 03:55:59;;;;;;;2.80;2.50;;;;;;;8.31;86.61;100384.03;5053454;28;20639;-69
2021/05/26 03:58:24;;;;;;;4.47;2.60;;;;;;;8.26;86.56;100372.78;5053308;28;20663;-68
2021/05/26 04:00:50;;;;;;;3.30;2.30;;;;;;;8.40;86.38;100375.63;5052902;28;20168;-68
2021/05/26 04:03:15;;;;;;;4.50;2.30;;;;;;;8.44;85.77;100379.84;5053119;28;20174;-69
2021/05/26 04:05:41;;;;;;;7.30;2.57;;;;;;;8.42;85.90;100371.94;5053279;28;20210;-68
2021/05/26 04:08:06;;;;;;;6.10;2.63;;;;;;;8.44;85.36;100372.72;5053206;28;20199;-69
2021/05/26 04:10:31;;;;;;;2.70;2.10;;;;;;;8.50;85.26;100371.53;5053704;28;20262;-68
2021/05/26 04:12:56;;;;;;;6.90;2.30;;;;;;;8.58;84.35;100379.16;5053431;28;20290;-68
2021/05/26 04:15:22;;;;;;;5.20;2.20;;;;;;;8.60;84.24;100379.94;5053372;28;20235;-68
2021/05/26 04:17:47;;;;;;;3.47;2.40;;;;;;;8.42;85.20;100371.94;5053194;28;20656;-68
2021/05/26 04:20:13;;;;;;;4.47;2.63;;;;;;;8.30;86.55;100374.34;5053218;28;20270;-68
2021/05/26 04:22:38;;;;;;;5.50;2.87;;;;;;;8.22;87.39;100373.88;5057019;28;20225;-68
2021/05/26 04:25:07;;;;;;;5.80;2.90;;;;;;;8.17;87.50;100366.09;5057734;28;20182;-68
2021/05/26 04:27:33;;;;;;;4.87;2.67;;;;;;;8.26;87.72;100365.66;5039350;28;20256;-67
2021/05/26 04:29:59;;;;;;;4.03;2.40;;;;;;;8.34;86.46;100365.28;5057221;28;20183;-67
2021/05/26 04:32:25;;;;;;;4.27;2.67;;;;;;;8.39;86.33;100366.78;5056715;28;20176;-69
2021/05/26 04:34:50;;;;;;;2.43;2.20;;;;;;;8.55;85.26;100366.88;5057278;28;20185;-71
2021/05/26 04:37:17;;;;;;;6.17;2.53;;;;;;;8.60;83.95;100364.81;5066303;28;20195;-70
2021/05/26 04:39:43;;;;;;;4.40;2.57;;;;;;;8.79;84.21;100364.69;5064988;28;20186;-71
2021/05/26 04:42:08;;;;;;;4.30;2.63;;;;;;;8.64;84.45;100361.06;5067033;28;20178;-72
2021/05/26 04:44:33;;;;;;;3.40;2.47;;;;;;;9.03;82.75;100357.22;5069309;28;20190;-70
2021/05/26 04:47:00;;;;;;;3.00;2.40;;;;;;;9.02;82.84;100361.69;5064881;28;20230;-71
2021/05/26 04:49:26;;;;;;;3.17;2.43;;;;;;;9.00;82.54;100368.03;5056618;28;20172;-71
2021/05/26 04:51:51;;;;;;;3.00;2.37;;;;;;;8.97;81.83;100363.75;5039101;28;20186;-71
2021/05/26 04:54:16;;;;;;;6.07;2.53;;;;;;;8.78;82.67;100357.66;5056558;28;20257;-70
2021/05/26 04:56:43;;;;;;;3.97;2.50;;;;;;;8.96;82.19;100362.03;5039185;28;20199;-71
2021/05/26 04:59:08;;;;;;;3.73;2.50;;;;;;;9.03;81.68;100360.75;5055963;28;20179;-70
2021/05/26 05:01:33;;;;;;;6.43;2.30;;;;;;;9.01;81.04;100362.63;5056306;28;20180;-71
2021/05/26 05:03:58;;;;;;;2.80;2.50;;;;;;;8.85;82.40;100367.03;5057373;28;20229;-70
2021/05/26 05:06:24;;;;;;;3.53;2.27;;;;;;;8.90;82.29;100359.66;5038481;28;20180;-69
2021/05/26 05:08:49;;;;;;;2.90;2.60;;;;;;;8.96;82.27;100356.69;5055930;28;20182;-68
2021/05/26 05:11:15;;;;;;;3.40;2.40;;;;;;;9.02;81.85;100358.16;5021961;28;20198;-68
2021/05/26 05:13:40;;;;;;;8.63;2.40;;;;;;;9.26;81.69;100362.13;5037830;28;20195;-69
2021/05/26 05:16:05;;;;;;;6.60;2.77;;;;;;;9.12;82.37;100361.19;5055792;28;20636;-68
2021/05/26 05:18:30;;;;;;;2.80;2.40;;;;;;;9.03;82.30;100350.09;5037735;28;20203;-69
2021/05/26 05:20:56;;;;;;;5.67;2.77;;;;;;;8.87;83.93;100359.81;5055830;28;20226;-69
2021/05/26 05:23:21;;;;;;;4.40;2.80;;;;;;;9.02;83.56;100366.16;5037674;28;20261;-68
2021/05/26 05:25:46;;;;;;;5.63;3.10;;;;;;;8.87;84.45;100365.16;5055462;28;20536;-69
2021/05/26 05:28:12;;;;;;;8.63;3.07;;;;;;;8.78;83.83;100363.84;5055185;28;20202;-68
2021/05/26 05:30:37;;;;;;;4.67;2.87;;;;;;;8.93;83.58;100359.53;5055578;28;20186;-70
2021/05/26 05:33:03;;;;;;;5.67;2.50;;;;;;;9.26;82.48;100354.16;5036470;28;20191;-70
2021/05/26 05:35:28;;;;;;;4.10;2.70;;;;;;;9.49;82.10;100365.34;5037120;28;20183;-70
2021/05/26 05:37:54;;;;;;;4.67;2.60;;;;;;;9.15;83.17;100363.66;5037358;28;20195;-70
2021/05/26 05:40:19;;;;;;;6.57;2.83;;;;;;;9.02;83.52;100366.16;5037480;28;20179;-70
2021/05/26 05:42:45;;;;;;;4.53;2.50;;;;;;;9.17;83.36;100364.44;5021375;28;20217;-70
2021/05/26 05:45:10;;;;;;;5.37;2.60;;;;;;;9.11;84.14;100362.13;5055609;28;20180;-69
2021/05/26 05:47:36;;;;;;;3.07;2.43;;;;;;;9.30;83.01;100368.19;5055112;28;20561;-70
2021/05/26 05:50:04;;;;;;;5.17;3.03;;;;;;;9.23;84.35;100369.44;5055578;28;20212;-71
2021/05/26 05:52:29;;;;;;;4.33;2.33;;;;;;;9.68;81.96;100361.56;5055457;28;20179;-70
2021/05/26 05:54:55;;;;;;;4.73;2.50;;;;;;;9.68;80.61;100366.03;5038294;28;20180;-71
2021/05/26 05:57:20;;;;;;;6.60;2.13;;;;;;;9.94;78.31;100344.06;5038544;28;20203;-70
2021/05/26 05:59:46;;;;;;;2.90;2.40;;;;;;;9.65;79.20;100353.72;5058365;28;20236;-70
2021/05/26 06:02:11;;;;;;;3.27;2.33;;;;;;;9.80;78.65;100365.34;5040330;28;20182;-71
2021/05/26 06:04:36;;;;;;;3.50;2.30;;;;;;;9.77;78.47;100364.66;5038003;28;20168;-70
2021/05/26 06:07:01;;;;;;;3.87;2.20;;;;;;;9.95;79.44;100358.25;5055544;28;20207;-70
2021/05/26 06:09:27;;;;;;;2.43;2.00;;;;;;;9.85;79.09;100363.28;5054943;28;20655;-70
2021/05/26 06:11:54;;;;;;;6.03;2.40;;;;;;;9.71;79.77;100358.75;5038127;28;20245;-70
2021/05/26 06:14:20;;;;;;;4.07;2.20;;;;;;;9.68;80.18;100356.25;5040139;28;20206;-70
2021/05/26 06:16:45;;;;;;;3.37;2.77;;;;;;;9.47;80.79;100370.75;5037343;28;20187;-70
2021/05/26 06:19:14;;;;;;;3.33;2.37;;;;;;;9.52;79.59;100365.16;5024213;28;20176;-70
2021/05/26 06:21:39;;;;;;;2.40;2.20;;;;;;;9.57;79.86;100361.28;5039592;28;20555;-69
2021/05/26 06:24:05;;;;;;;3.77;2.57;;;;;;;9.41;79.76;100352.47;5054493;28;20167;-68
2021/05/26 06:26:31;;;;;;;3.00;2.60;;;;;;;9.65;79.16;100364.38;5054738;28;20186;-71
2021/05/26 06:29:01;;;;;;;4.90;2.50;;;;;;;9.61;79.26;100365.50;5036646;28;20171;-69
2021/05/26 06:31:27;;;;;;;3.83;2.63;;;;;;;9.30;80.97;100362.84;5036550;28;20176;-70
2021/05/26 06:33:52;;;;;;;3.83;2.40;;;;;;;9.73;79.96;100371.13;5054515;28;20287;-71
2021/05/26 06:36:17;;;;;;;4.83;3.00;;;;;;;9.65;80.41;100358.19;5036449;28;20203;-71
2021/05/26 06:38:43;;;;;;;3.17;2.20;;;;;;;9.75;79.49;100364.75;5054175;28;20214;-71
2021/05/26 06:41:08;;;;;;;2.90;2.20;;;;;;;9.81;79.93;100355.53;5054101;28;20175;-70
2021/05/26 06:43:33;;;;;;;4.43;2.50;;;;;;;10.26;75.92;100360.88;5054620;28;20178;-71
2021/05/26 06:45:59;;;;;;;5.20;2.43;;;;;;;10.31;75.05;100360.63;5054488;28;20532;-69
2021/05/26 06:48:24;;;;;;;4.00;2.70;;;;;;;10.40;75.80;100359.22;5054183;28;20298;-70
2021/05/26 06:50:50;;;;;;;4.57;2.00;;;;;;;10.53;74.55;100358.41;5055303;28;20183;-70
2021/05/26 06:53:15;;;;;;;3.83;2.20;;;;;;;10.40;75.83;100364.53;5020277;28;20248;-69
2021/05/26 06:55:40;;;;;;;2.97;2.10;;;;;;;10.43;74.89;100359.91;5055361;28;20701;-70
2021/05/26 06:58:06;;;;;;;4.80;1.97;;;;;;;10.49;74.30;100356.88;5038297;28;20187;-69
2021/05/26 07:00:32;;;;;;;3.37;2.00;;;;;;;10.25;76.65;100353.84;5037433;28;20245;-69
2021/05/26 07:02:57;;;;;;;2.67;2.30;;;;;;;10.82;74.55;100359.31;5038377;28;20167;-70
2021/05/26 07:05:23;;;;;;;3.33;2.30;;;;;;;11.11;72.51;100360.16;5038802;28;20175;-70
2021/05/26 07:07:48;;;;;;;4.67;1.80;;;;;;;11.16;72.59;100355.41;5043611;28;20285;-71
2021/05/26 07:10:16;;;;;;;3.20;2.20;;;;;;;11.14;71.95;100356.44;5061583;28;20210;-70
2021/05/26 07:12:41;;;;;;;3.13;2.10;;;;;;;11.39;70.75;100353.94;5060648;28;20203;-70
2021/05/26 07:15:06;;;;;;;2.37;2.17;;;;;;;11.01;72.13;100356.34;5038045;28;20176;-70
2021/05/26 07:17:32;;;;;;;3.07;1.90;;;;;;;11.19;70.82;100359.69;5036406;28;20195;-71
2021/05/26 07:19:57;;;;;;;3.53;2.53;;;;;;;11.14;71.91;100359.97;5054233;28;20513;-71
2021/05/26 07:22:23;;;;;;;3.13;2.17;;;;;;;11.28;70.62;100354.63;5036238;28;20179;-71
2021/05/26 07:24:48;;;;;;;3.00;2.20;;;;;;;10.56;73.87;100360.88;5035987;28;20171;-69
2021/05/26 07:27:13;;;;;;;2.33;1.97;;;;;;;10.65;73.59;100354.13;5054733;28;20249;-72
2021/05/26 07:29:39;;;;;;;4.33;1.90;;;;;;;10.78;72.91;100360.44;5053788;28;20555;-71
2021/05/26 07:32:04;;;;;;;3.47;1.90;;;;;;;10.90;71.93;100359.69;5036766;28;20172;-71
2021/05/26 07:34:30;;;;;;;3.50;1.90;;;;;;;11.01;71.92;100351.00;5053758;28;20202;-71
2021/05/26 07:36:55;;;;;;;4.03;2.03;;;;;;;10.89;71.79;100349.97;5053460;28;20192;-71
2021/05/26 07:39:20;;;;;;;5.13;2.20;;;;;;;10.61;72.98;100364.13;5053882;28;20178;-70
2021/05/26 07:41:46;;;;;;;4.07;2.03;;;;;;;10.78;73.46;100351.56;5035581;28;20525;-70
2021/05/26 07:44:11;;;;;;;3.03;2.00;;;;;;;10.46;74.70;100357.06;5035614;28;20175;-71
2021/05/26 07:46:36;;;;;;;3.70;1.83;;;;;;;10.10;76.56;100356.53;5053656;28;20175;-70
2021/05/26 07:49:02;;;;;;;4.30;2.00;;;;;;;10.24;76.42;100357.47;5053615;28;20191;-69
2021/05/26 07:51:29;;;;;;;4.07;2.23;;;;;;;10.02;76.11;100346.28;5053186;28;20211;-69
2021/05/26 07:53:55;;;;;;;2.30;2.10;;;;;;;10.06;77.30;100345.19;5053104;28;20195;-69
2021/05/26 07:56:21;;;;;;;2.80;2.07;;;;;;;10.21;76.25;100352.31;5018572;28;20182;-69
2021/05/26 07:58:46;;;;;;;3.17;1.80;;;;;;;10.57;75.48;100353.72;5035644;28;20521;-70
2021/05/26 08:01:11;;;;;;;2.40;2.00;;;;;;;10.74;73.29;100347.34;5035439;28;20180;-70
2021/05/26 08:03:37;;;;;;;4.53;1.90;;;;;;;10.84;72.52;100360.06;5035521;28;20293;-71
2021/05/26 08:06:02;;;;;;;3.53;2.33;;;;;;;10.90;72.17;100357.00;5035416;28;20233;-68
2021/05/26 08:08:28;;;;;;;4.23;2.30;;;;;;;11.27;70.61;100354.72;5035344;28;20203;-70
2021/05/26 08:10:53;;;;;;;4.07;1.77;;;;;;;11.18;71.29;100366.00;5053259;28;20179;-69
2021/05/26 08:13:18;;;;;;;3.07;1.80;;;;;;;11.36;70.47;100351.47;5053004;28;20261;-69
2021/05/26 08:15:44;;;;;;;4.93;2.00;;;;;;;12.04;68.10;100351.50;5053206;28;20172;-69
2021/05/26 08:18:12;;;;;;;3.77;1.70;;;;;;;11.94;68.82;100360.25;5053347;28;20199;-69
2021/05/26 08:20:42;;;;;;;5.37;1.37;;;;;;;12.49;65.81;100355.56;5035979;28;20175;-70
2021/05/26 08:23:07;;;;;;;5.07;1.60;;;;;;;12.31;65.71;100346.13;5053534;28;20505;-69
2021/05/26 08:25:33;;;;;;;4.90;1.80;;;;;;;12.90;62.57;100349.16;5035392;28;20178;-70
2021/05/26 08:27:58;;;;;;;2.47;1.60;;;;;;;12.67;62.41;100364.16;5053009;28;20192;-70
2021/05/26 08:30:23;;;;;;;1.77;1.43;;;;;;;12.53;63.37;100345.50;5053285;28;20230;-69
2021/05/26 08:32:49;;;;;;;4.37;1.47;;;;;;;12.53;63.02;100341.00;5052950;28;20636;-69
2021/05/26 08:35:14;;;;;;;2.93;1.60;;;;;;;12.47;64.53;100337.88;5053147;28;20247;-69
2021/05/26 08:37:40;;;;;;;3.37;1.73;;;;;;;11.50;66.97;100334.53;5035298;28;20200;-70
2021/05/26 08:40:06;;;;;;;1.63;1.40;;;;;;;11.87;65.66;100333.88;5053159;28;20171;-70
2021/05/26 08:42:31;;;;;;;1.67;1.50;;;;;;;12.12;64.27;100341.13;5053176;28;20199;-69
2021/05/26 08:44:57;;;;;;;3.17;1.40;;;;;;;11.85;65.65;100333.13;5035443;28;20179;-69
2021/05/26 08:47:26;;;;;;;3.13;1.80;;;;;;;11.96;65.00;100335.09;5053422;28;20675;-69
2021/05/26 08:49:51;;;;;;;3.50;1.47;;;;;;;12.33;63.86;100333.50;5053918;28;20168;-70
2021/05/26 08:52:17;;;;;;;3.00;1.50;;;;;;;12.18;64.12;100330.03;5020018;28;20176;-70
2021/05/26 08:54:45;;;;;;;2.50;1.20;;;;;;;12.46;63.81;100333.50;5068665;28;20195;-70
2021/05/26 08:57:11;;;;;;;1.80;1.20;;;;;;;12.72;62.46;100324.53;5050919;28;20243;-71
2021/05/26 08:59:36;;;;;;;3.73;1.90;;;;;;;13.30;58.93;100328.47;5020106;28;20214;-71
2021/05/26 09:02:02;;;;;;;3.20;1.57;;;;;;;12.99;60.27;100331.56;5035755;28;20255;-71
2021/05/26 09:04:31;;;;;;;1.63;1.10;;;;;;;13.28;60.17;100324.19;5052568;28;20540;-70
2021/05/26 09:07:16;;;;;;;1.70;1.20;;;;;;;12.66;60.62;100324.97;5053022;28;20191;-70
2021/05/26 09:09:46;;;;;;;3.53;1.23;;;;;;;13.69;57.73;100319.34;5056014;28;20225;-70
2021/05/26 09:12:12;;;;;;;2.60;1.27;;;;;;;13.40;58.17;100309.91;5039409;28;20171;-68
2021/05/26 09:14:37;;;;;;;2.67;1.40;;;;;;;14.12;56.55;100302.69;5055973;28;20196;-69
2021/05/26 09:17:10;;;;;;;1.97;1.00;;;;;;;14.19;56.46;100303.97;5038919;28;20195;-72
2021/05/26 09:19:36;;;;;;;2.40;1.50;;;;;;;14.06;58.37;100313.91;5057890;28;20168;-70
2021/05/26 09:22:19;;;;;;;2.83;1.40;;;;;;;13.55;57.32;100297.19;5038204;28;20167;-68
2021/05/26 09:24:44;;;;;;;2.73;1.07;;;;;;;13.93;56.97;100295.19;5038712;28;20152;-70
2021/05/26 09:27:12;;;;;;;6.03;1.33;;;;;;;13.56;57.74;100293.53;5038131;28;20540;-70
2021/05/26 09:29:42;;;;;;;4.83;1.40;;;;;;;13.50;57.37;100294.00;5038305;28;20263;-70
2021/05/26 09:32:12;;;;;;;1.87;1.10;;;;;;;13.07;59.25;100307.81;5055949;28;20167;-71
2021/05/26 09:34:40;;;;;;;1.33;1.07;;;;;;;12.29;61.40;100301.69;5056558;28;20675;-70
2021/05/26 09:37:05;;;;;;;2.20;1.10;;;;;;;12.17;62.39;100301.56;5056214;28;20191;-70
2021/05/26 09:40:06;;;;;;;5.30;1.67;;;;;;;12.26;62.33;100305.41;5056076;28;20230;-71
2021/05/26 09:42:36;;;;;;;1.57;1.10;;;;;;;12.49;62.41;100298.50;5039095;28;20186;-69
2021/05/26 09:45:11;;;;;;;2.53;1.20;;;;;;;12.10;64.07;100302.94;5056451;28;20195;-70
2021/05/26 09:47:40;;;;;;;3.87;1.50;;;;;;;12.04;64.92;100305.16;5060679;22;20222;-73
2021/05/26 09:50:35;;;;;;;2.63;1.10;;;;;;;11.91;64.10;100297.13;5053574;28;20237;-71
2021/05/26 09:53:11;;;;;;;1.67;0.97;;;;;;;11.94;64.60;100299.59;5033828;28;20219;-72
2021/05/26 09:55:39;;;;;;;2.73;1.13;;;;;;;12.90;62.81;100294.72;5053699;28;20156;-72
2021/05/26 09:58:12;;;;;;;2.40;1.07;;;;;;;13.52;61.18;100282.19;5054889;28;20187;-72
2021/05/26 10:00:39;;;;;;;1.73;1.03;;;;;;;13.77;59.43;100295.50;5036945;28;20239;-72
2021/05/26 10:03:04;;;;;;;1.90;1.10;;;;;;;13.27;59.48;100287.63;5036339;28;20654;-71
2021/05/26 10:05:30;;;;;;;0.97;0.90;;;;;;;12.77;60.27;100287.56;5036374;28;20203;-72
2021/05/26 10:07:57;;;;;;;2.40;1.40;;;;;;;13.15;59.48;100289.34;5054208;28;20692;-73
2021/05/26 10:10:24;;;;;;;2.60;1.10;;;;;;;13.06;57.76;100301.59;5054524;28;20624;-72
2021/05/26 10:12:53;;;;;;;4.27;1.50;;;;;;;13.02;58.53;100283.16;5036103;28;20207;-72
2021/05/26 10:15:20;;;;;;;5.60;1.67;;;;;;;13.23;57.75;100295.03;5036394;28;20178;-72
2021/05/26 10:17:51;;;;;;;3.27;1.43;;;;;;;13.77;56.03;100300.00;5036153;28;20274;-72
2021/05/26 10:20:27;;;;;;;2.50;1.30;;;;;;;14.22;54.32;100276.03;5036611;28;20198;-72
2021/05/26 10:22:54;;;;;;;4.33;1.63;;;;;;;14.52;53.65;100284.44;5036040;28;20156;-72
2021/05/26 10:25:20;;;;;;;3.00;1.50;;;;;;;14.49;54.47;100273.06;5036129;28;20207;-73
2021/05/26 10:27:56;;;;;;;3.23;1.50;;;;;;;14.24;55.30;100269.56;5038813;28;20670;-71
2021/05/26 10:30:27;;;;;;;2.53;1.40;;;;;;;14.20;54.66;100267.25;5037215;28;20171;-72
2021/05/26 10:33:01;;;;;;;5.27;1.40;;;;;;;14.11;55.47;100271.47;5035950;28;20242;-72
2021/05/26 10:35:30;;;;;;;2.70;1.20;;;;;;;14.03;55.60;100273.88;5037047;28;20159;-72
2021/05/26 10:38:04;;;;;;;2.57;1.47;;;;;;;14.14;53.42;100283.81;5035777;28;20202;-72
2021/05/26 10:40:33;;;;;;;4.80;1.80;;;;;;;13.91;54.25;100273.00;5036287;28;20583;-72
2021/05/26 10:43:31;;;;;;;3.87;1.33;;;;;;;13.81;55.15;100266.63;5054099;28;20172;-72
2021/05/26 10:45:58;;;;;;;2.63;1.33;;;;;;;13.84;55.34;100276.25;5005587;28;20211;-72
2021/05/26 10:48:38;;;;;;;2.13;1.30;;;;;;;13.85;54.67;100267.25;5057940;28;20312;-72
2021/05/26 10:51:03;;;;;;;2.87;1.27;;;;;;;13.92;53.97;100263.97;5056692;28;20172;-71
2021/05/26 10:53:42;;;;;;;6.47;1.70;;;;;;;13.55;54.61;100262.34;5036606;28;20599;-72
2021/05/26 10:56:35;;;;;;;3.03;1.57;;;;;;;13.71;55.13;100263.75;5036337;28;20182;-71
2021/05/26 10:59:10;;;;;;;4.73;1.47;;;;;;;13.24;56.22;100261.91;5054928;28;20677;-71
2021/05/26 11:02:04;;;;;;;2.60;1.43;;;;;;;12.93;57.18;100268.59;5053211;28;20175;-71
2021/05/26 11:04:32;;;;;;;4.40;1.63;;;;;;;12.42;58.62;100275.78;5053631;28;20263;-71
2021/05/26 11:07:18;;;;;;;2.47;1.20;;;;;;;12.72;57.35;100276.34;5034517;28;20176;-71
2021/05/26 11:09:54;;;;;;;2.63;1.33;;;;;;;12.97;56.53;100272.75;5052940;28;20182;-72
2021/05/26 11:12:19;;;;;;;3.87;1.23;;;;;;;12.61;57.93;100273.53;5034810;28;20175;-72
2021/05/26 11:14:44;;;;;;;1.20;1.00;;;;;;;12.26;60.38;100285.81;5034493;28;20196;-71
2021/05/26 11:17:12;;;;;;;4.23;1.63;;;;;;;11.94;63.94;100296.06;5018152;28;20254;-71
2021/05/26 11:19:38;;;;;;;2.50;1.67;;;;;;;11.51;66.17;100282.78;5052401;28;20520;-70
2021/05/26 11:22:06;;;;;;;5.53;1.90;;;;;;;10.93;72.02;100292.75;5034701;28;20190;-72
2021/05/26 11:24:39;;;;;;;7.13;2.30;;;;;;;10.43;75.07;100292.34;5034443;28;20170;-72
2021/05/26 11:27:20;;;;;;;4.50;1.93;;;;;;;10.01;80.59;100292.09;5052208;28;20679;-72
2021/05/26 11:29:48;;;;;;;5.60;2.53;;;;;;;9.84;82.96;100291.38;5034282;28;20178;-70
2021/05/26 11:32:14;;;;;;;6.80;3.07;;;;;;;9.47;87.37;100305.97;5051416;28;20639;-72
2021/05/26 11:34:41;;;;;;;3.47;2.43;;;;;;;9.49;87.55;100304.94;5034303;28;20207;-70